Time;durP1;ratioP1;P1;durP2;ratioP2;P2;SDS_P1;SDS_P2;PMS_P1;PMS_P2;Temp;Humidity;BMP_temperature;BMP_pressure;BME280_temperature;BME280_humidity;BME280_pressure;Samples;Min_cycle;Max_cycle;Signal;HPM_P1;HPM_P2
2021/12/30 00:00:54;;;;;;;6.57;1.63;;;;;;;15.74;60.33;96572.38;5093111;28;20020;-31
2021/12/30 00:03:19;;;;;;;6.63;2.10;;;;;;;15.66;60.64;96561.00;5093896;28;20035;-31
2021/12/30 00:05:45;;;;;;;5.38;1.67;;;;;;;15.79;60.20;96575.28;5097111;28;20280;-29
2021/12/30 00:08:11;;;;;;;8.80;2.67;;;;;;;15.72;60.51;96567.38;5097297;28;20016;-29
2021/12/30 00:10:37;;;;;;;5.93;2.03;;;;;;;15.73;60.36;96568.13;5097092;28;20028;-29
2021/12/30 00:13:03;;;;;;;6.93;1.52;;;;;;;15.67;60.68;96573.47;5096992;28;20036;-29
2021/12/30 00:15:28;;;;;;;4.25;1.98;;;;;;;15.61;60.81;96569.81;5096156;28;20020;-28
2021/12/30 00:17:54;;;;;;;5.43;1.83;;;;;;;15.66;60.68;96554.78;5097025;28;20397;-28
2021/12/30 00:20:20;;;;;;;3.17;1.55;;;;;;;15.68;60.71;96555.09;5097002;28;20028;-29
2021/12/30 00:22:46;;;;;;;5.15;2.10;;;;;;;15.74;60.37;96555.97;5097090;28;20020;-28
2021/12/30 00:25:12;;;;;;;5.70;1.88;;;;;;;15.66;60.48;96549.31;5096745;28;20024;-28
2021/12/30 00:27:38;;;;;;;4.05;1.30;;;;;;;15.75;60.25;96535.63;5096835;28;20466;-28
2021/12/30 00:30:07;;;;;;;4.82;1.77;;;;;;;15.59;60.91;96544.13;5096845;28;20158;-28
2021/12/30 00:32:32;;;;;;;4.13;1.38;;;;;;;15.61;60.76;96547.16;5096732;28;20046;-29
2021/12/30 00:34:59;;;;;;;3.42;1.55;;;;;;;15.68;60.51;96553.09;5096749;28;20016;-29
2021/12/30 00:37:24;;;;;;;4.95;1.40;;;;;;;15.73;60.38;96557.94;5096641;28;20119;-29
2021/12/30 00:39:50;;;;;;;3.42;1.08;;;;;;;15.70;60.63;96566.31;5096676;28;20024;-29
2021/12/30 00:42:15;;;;;;;2.53;1.10;;;;;;;15.59;60.85;96560.53;5096570;28;20035;-29
2021/12/30 00:44:41;;;;;;;3.50;1.20;;;;;;;15.54;61.07;96558.41;5096370;28;20027;-29
2021/12/30 00:47:06;;;;;;;3.85;1.40;;;;;;;15.53;60.99;96556.88;5096437;28;20020;-29
2021/12/30 00:49:31;;;;;;;6.15;1.30;;;;;;;15.52;61.25;96563.56;5096489;28;20020;-29
2021/12/30 00:51:57;;;;;;;4.53;1.20;;;;;;;15.64;60.74;96573.59;5096269;28;20493;-30
2021/12/30 00:54:23;;;;;;;3.53;1.33;;;;;;;15.64;60.76;96573.59;5096406;28;20055;-29
2021/12/30 00:56:49;;;;;;;5.25;1.70;;;;;;;15.65;60.64;96575.88;5096367;28;20028;-29
2021/12/30 00:59:15;;;;;;;2.97;1.40;;;;;;;15.63;60.64;96572.84;5096238;28;20039;-29
2021/12/30 01:01:40;;;;;;;4.53;1.10;;;;;;;15.62;60.54;96582.25;5096271;28;20024;-28
2021/12/30 01:04:06;;;;;;;3.05;1.00;;;;;;;15.72;60.32;96593.94;5094939;28;20468;-29
2021/12/30 01:06:32;;;;;;;3.83;1.13;;;;;;;15.69;60.43;96589.41;5096106;28;20028;-28
2021/12/30 01:08:58;;;;;;;5.05;1.45;;;;;;;15.70;60.33;96590.94;5096024;28;20024;-29
2021/12/30 01:11:24;;;;;;;2.78;1.15;;;;;;;15.72;60.39;96586.50;5096010;28;20035;-29
2021/12/30 01:14:00;;;;;;;3.05;0.90;;;;;;;15.66;60.44;96602.00;5095575;28;20104;-29
2021/12/30 01:16:29;;;;;;;2.42;1.00;;;;;;;15.66;60.16;96584.84;5095817;28;20103;-29
2021/12/30 01:19:15;;;;;;;4.07;1.30;;;;;;;15.72;60.19;96588.47;5096001;28;20379;-29
2021/12/30 01:21:42;;;;;;;2.70;1.10;;;;;;;15.69;60.41;96581.97;5095700;28;20468;-29
2021/12/30 01:24:09;;;;;;;4.57;1.23;;;;;;;15.67;60.33;96583.63;5095920;28;20031;-29
2021/12/30 01:26:35;;;;;;;4.22;1.00;;;;;;;15.66;60.54;96582.13;5095703;28;20114;-29
2021/12/30 01:29:01;;;;;;;4.00;1.00;;;;;;;15.67;60.43;96586.38;5095654;28;20066;-29
2021/12/30 01:31:26;;;;;;;4.63;1.80;;;;;;;15.65;60.42;96580.59;5095725;28;20027;-28
2021/12/30 01:33:52;;;;;;;3.97;1.33;;;;;;;15.64;60.46;96581.81;5095464;28;20028;-29
2021/12/30 01:36:18;;;;;;;5.72;1.10;;;;;;;15.66;60.19;96576.66;5095676;28;20029;-29
2021/12/30 01:38:45;;;;;;;2.88;1.02;;;;;;;15.65;60.51;96583.31;5095836;28;20035;-29
2021/12/30 01:41:12;;;;;;;3.80;1.02;;;;;;;15.62;60.58;96587.72;5095420;28;20499;-29
2021/12/30 01:43:37;;;;;;;4.95;1.20;;;;;;;15.64;60.41;96579.06;5095510;28;20113;-28
2021/12/30 01:46:05;;;;;;;2.40;1.10;;;;;;;15.64;60.37;96590.75;5095374;28;20103;-29
2021/12/30 01:48:30;;;;;;;3.30;1.55;;;;;;;15.61;60.56;96591.66;5094040;28;20024;-29
2021/12/30 01:50:56;;;;;;;3.13;1.02;;;;;;;15.57;60.58;96601.25;5095215;28;20051;-29
2021/12/30 01:53:21;;;;;;;2.63;1.13;;;;;;;15.60;60.61;96612.03;5095298;28;20075;-29
2021/12/30 01:55:48;;;;;;;5.28;1.27;;;;;;;15.62;60.45;96623.25;5095048;28;20170;-29
2021/12/30 01:58:14;;;;;;;3.85;1.27;;;;;;;15.60;60.45;96614.00;5092434;28;20080;-29
2021/12/30 02:00:42;;;;;;;4.03;1.23;;;;;;;15.57;60.51;96618.41;5093535;28;20471;-28
2021/12/30 02:03:09;;;;;;;4.53;1.52;;;;;;;15.56;60.62;96627.84;5094944;28;20043;-29
2021/12/30 02:05:37;;;;;;;4.07;1.30;;;;;;;15.57;60.49;96612.94;5093615;28;20028;-28
2021/12/30 02:08:03;;;;;;;4.30;1.20;;;;;;;15.57;60.40;96609.44;5094963;28;20024;-29
2021/12/30 02:10:29;;;;;;;3.45;1.10;;;;;;;15.49;60.78;96606.22;5094989;28;20205;-28
2021/12/30 02:12:54;;;;;;;3.75;1.05;;;;;;;15.59;60.48;96617.94;5094840;28;20121;-30
2021/12/30 02:15:20;;;;;;;5.15;1.48;;;;;;;15.58;60.53;96616.44;5094759;28;20099;-29
2021/12/30 02:17:48;;;;;;;3.22;1.17;;;;;;;15.56;60.55;96619.63;5094662;28;20537;-29
2021/12/30 02:20:52;;;;;;;4.30;1.40;;;;;;;15.53;60.69;96606.06;5094917;28;20461;-29
2021/12/30 02:23:21;;;;;;;4.38;1.05;;;;;;;15.46;60.85;96605.13;5094672;28;20032;-29
2021/12/30 02:25:49;;;;;;;4.45;1.65;;;;;;;15.38;61.38;96594.97;5094300;28;20030;-29
2021/12/30 02:28:17;;;;;;;4.85;2.50;;;;;;;15.31;61.03;96598.75;5094663;28;20107;-29
2021/12/30 02:30:43;;;;;;;5.00;1.00;;;;;;;15.51;60.70;96603.78;5094339;28;20066;-28
2021/12/30 02:33:10;;;;;;;3.97;1.00;;;;;;;15.50;60.91;96594.06;5094638;28;20099;-29
2021/12/30 02:35:35;;;;;;;3.72;1.30;;;;;;;15.48;60.72;96593.00;5094331;28;20028;-29
2021/12/30 02:38:02;;;;;;;4.18;1.02;;;;;;;15.47;60.95;96584.03;5094261;28;20016;-29
2021/12/30 02:40:32;;;;;;;5.80;1.15;;;;;;;15.46;60.93;96588.75;5094364;28;20531;-30
2021/12/30 02:42:58;;;;;;;4.63;1.30;;;;;;;15.46;60.90;96591.47;5094303;28;20035;-29
2021/12/30 02:45:24;;;;;;;2.75;1.10;;;;;;;15.49;60.85;96589.06;5094132;28;20050;-29
2021/12/30 02:47:49;;;;;;;5.07;1.38;;;;;;;15.46;60.85;96586.00;5094448;28;20049;-29
2021/12/30 02:50:15;;;;;;;3.15;1.00;;;;;;;15.42;60.92;96590.88;5094411;28;20024;-29
2021/12/30 02:52:40;;;;;;;3.65;1.10;;;;;;;15.49;60.87;96594.50;5093908;28;20044;-28
2021/12/30 02:55:06;;;;;;;3.78;0.85;;;;;;;15.49;60.70;96597.25;5093935;28;20020;-28
2021/12/30 02:57:31;;;;;;;4.03;1.08;;;;;;;15.53;60.57;96595.13;5092808;28;20024;-29
2021/12/30 02:59:57;;;;;;;2.50;0.98;;;;;;;15.49;60.92;96605.44;5093944;28;20064;-29
2021/12/30 03:02:22;;;;;;;6.32;1.77;;;;;;;15.43;61.09;96599.84;5094108;28;20487;-29
2021/12/30 03:04:48;;;;;;;4.53;1.33;;;;;;;15.46;60.80;96607.88;5093759;28;20355;-29
2021/12/30 03:07:17;;;;;;;3.47;1.40;;;;;;;15.43;60.95;96618.97;5093858;28;20103;-29
2021/12/30 03:09:46;;;;;;;7.22;1.30;;;;;;;15.44;60.92;96618.53;5093581;28;20492;-29
2021/12/30 03:12:12;;;;;;;3.15;1.17;;;;;;;15.41;61.14;96627.63;5093794;28;20504;-29
2021/12/30 03:14:39;;;;;;;2.55;0.95;;;;;;;15.41;60.92;96624.88;5093670;28;20026;-29
2021/12/30 03:17:05;;;;;;;3.90;1.13;;;;;;;15.46;60.69;96627.00;5093708;28;20406;-28
2021/12/30 03:19:30;;;;;;;3.85;1.35;;;;;;;15.44;60.75;96629.47;5093767;28;20028;-30
2021/12/30 03:21:56;;;;;;;3.55;1.30;;;;;;;15.50;60.63;96628.84;5093656;28;20525;-29
2021/12/30 03:24:22;;;;;;;3.42;1.00;;;;;;;15.54;60.40;96624.75;5092177;28;20051;-28
2021/12/30 03:26:47;;;;;;;3.45;1.00;;;;;;;15.44;60.85;96621.25;5093511;28;20466;-29
2021/12/30 03:29:13;;;;;;;4.68;0.98;;;;;;;15.36;61.07;96611.81;5093412;28;20110;-30
2021/12/30 03:31:38;;;;;;;2.88;1.17;;;;;;;15.43;60.84;96605.31;5093487;28;20094;-28
2021/12/30 03:34:04;;;;;;;3.03;1.05;;;;;;;15.41;60.74;96615.94;5093367;28;20485;-28
2021/12/30 03:36:31;;;;;;;3.83;1.00;;;;;;;15.46;60.82;96618.03;5093379;28;20028;-29
2021/12/30 03:38:57;;;;;;;3.22;1.15;;;;;;;15.42;61.03;96631.13;5093017;28;20081;-29
2021/12/30 03:41:25;;;;;;;5.75;1.30;;;;;;;15.45;60.69;96625.47;5093324;28;20420;-28
2021/12/30 03:43:50;;;;;;;5.15;1.10;;;;;;;15.44;60.77;96620.50;5093587;28;20386;-29
2021/12/30 03:46:16;;;;;;;3.10;1.42;;;;;;;15.42;60.69;96623.69;5093140;28;20020;-29
2021/12/30 03:48:43;;;;;;;3.22;0.93;;;;;;;15.41;61.01;96621.41;5093445;28;20032;-29
2021/12/30 03:51:19;;;;;;;4.97;1.00;;;;;;;15.49;60.61;96617.16;5093082;28;20394;-31
2021/12/30 03:53:49;;;;;;;2.72;1.00;;;;;;;15.43;60.81;96610.78;5093131;28;20035;-29
2021/12/30 03:56:15;;;;;;;4.72;1.25;;;;;;;15.42;60.78;96612.75;5091811;28;20054;-30
2021/12/30 03:58:43;;;;;;;4.55;1.17;;;;;;;15.35;61.09;96613.03;5093160;28;20024;-29
2021/12/30 04:01:10;;;;;;;2.47;0.98;;;;;;;15.40;60.92;96609.69;5092927;28;20024;-29
2021/12/30 04:03:36;;;;;;;1.73;0.70;;;;;;;15.43;60.83;96622.47;5093366;28;20034;-29
2021/12/30 04:06:01;;;;;;;2.70;1.70;;;;;;;15.39;61.08;96610.91;5093089;28;20962;-28
2021/12/30 04:08:27;;;;;;;3.70;1.00;;;;;;;15.44;60.75;96624.00;5093206;28;20027;-29
2021/12/30 04:10:54;;;;;;;3.33;1.10;;;;;;;15.43;60.58;96621.72;5092940;28;20114;-28
2021/12/30 04:13:20;;;;;;;4.63;1.10;;;;;;;15.37;60.98;96621.53;5093066;28;20020;-28
2021/12/30 04:15:46;;;;;;;3.58;1.10;;;;;;;15.42;60.80;96618.22;5092860;28;20508;-29
2021/12/30 04:18:11;;;;;;;2.80;0.80;;;;;;;15.40;60.95;96617.91;5093092;28;20035;-29
2021/12/30 04:20:37;;;;;;;5.22;1.00;;;;;;;15.38;60.89;96630.50;5092887;28;20028;-28
2021/12/30 04:23:02;;;;;;;5.57;1.38;;;;;;;15.43;60.65;96624.44;5092848;28;20030;-29
2021/12/30 04:25:28;;;;;;;2.22;0.80;;;;;;;15.37;60.95;96621.53;5093087;28;20034;-29
2021/12/30 04:27:53;;;;;;;2.40;0.90;;;;;;;15.40;60.79;96615.16;5093154;28;20024;-29
2021/12/30 04:30:19;;;;;;;3.67;1.10;;;;;;;15.34;60.97;96616.19;5092858;28;20023;-29
2021/12/30 04:32:45;;;;;;;4.20;1.00;;;;;;;15.35;60.89;96613.03;5092764;28;20023;-29
2021/12/30 04:35:11;;;;;;;4.05;0.93;;;;;;;15.34;61.10;96627.13;5091580;28;20031;-29
2021/12/30 04:37:38;;;;;;;4.88;1.02;;;;;;;15.39;60.96;96629.28;5092601;28;20029;-29
2021/12/30 04:40:06;;;;;;;4.10;1.30;;;;;;;15.35;61.07;96628.66;5092889;28;20103;-29
2021/12/30 04:42:32;;;;;;;2.63;0.85;;;;;;;15.38;60.71;96627.75;5092664;28;20036;-29
2021/12/30 04:44:58;;;;;;;2.22;0.82;;;;;;;15.36;60.81;96628.22;5092651;28;20107;-29
2021/12/30 04:47:23;;;;;;;5.47;1.45;;;;;;;15.39;60.80;96640.97;5092497;28;20055;-28
2021/12/30 04:49:49;;;;;;;3.80;1.05;;;;;;;15.43;60.77;96655.25;5093674;28;20028;-28
2021/12/30 04:52:15;;;;;;;3.78;1.10;;;;;;;15.39;60.70;96662.84;5096543;28;20072;-29
2021/12/30 04:54:40;;;;;;;3.65;0.95;;;;;;;15.34;60.90;96668.88;5096612;28;20488;-28
2021/12/30 04:57:06;;;;;;;4.00;1.15;;;;;;;15.48;60.47;96680.47;5096466;28;20024;-29
2021/12/30 04:59:31;;;;;;;1.95;0.80;;;;;;;15.37;60.78;96680.88;5096562;28;20016;-29
2021/12/30 05:01:58;;;;;;;3.15;1.00;;;;;;;15.42;60.54;96678.34;5096362;28;20039;-29
2021/12/30 05:04:24;;;;;;;1.92;0.85;;;;;;;15.30;60.88;96681.94;5096146;28;20470;-28
2021/12/30 05:06:49;;;;;;;3.60;1.10;;;;;;;15.35;60.85;96678.59;5096113;28;20102;-28
2021/12/30 05:09:15;;;;;;;2.70;1.10;;;;;;;15.40;60.59;96686.22;5096160;28;20047;-29
2021/12/30 05:11:42;;;;;;;2.75;1.10;;;;;;;15.30;60.78;96703.81;5094756;28;20485;-29
2021/12/30 05:14:11;;;;;;;3.22;0.88;;;;;;;15.27;60.92;96706.66;5096061;28;20024;-28
2021/12/30 05:16:38;;;;;;;5.22;1.00;;;;;;;15.36;60.74;96723.09;5095122;28;20023;-28
2021/12/30 05:19:04;;;;;;;3.75;1.30;;;;;;;15.40;60.49;96718.25;5095886;28;20073;-28
2021/12/30 05:21:31;;;;;;;4.82;1.30;;;;;;;15.40;60.56;96710.81;5095932;28;20039;-29
2021/12/30 05:23:57;;;;;;;2.55;0.80;;;;;;;15.36;60.61;96712.16;5095830;28;20016;-29
2021/12/30 05:26:27;;;;;;;4.97;1.23;;;;;;;15.37;60.68;96716.41;5094572;28;20371;-28
2021/12/30 05:28:53;;;;;;;1.90;0.80;;;;;;;15.37;60.51;96728.09;5095957;28;20028;-28
2021/12/30 05:31:19;;;;;;;3.95;1.00;;;;;;;15.29;60.88;96729.59;5095716;28;20036;-29
2021/12/30 05:33:44;;;;;;;2.45;0.80;;;;;;;15.32;60.78;96722.50;5095510;28;20031;-29
2021/12/30 05:36:10;;;;;;;4.57;1.23;;;;;;;15.37;60.64;96725.38;5095588;28;20093;-28
2021/12/30 05:38:35;;;;;;;4.93;1.25;;;;;;;15.33;60.68;96722.00;5095609;28;20090;-28
2021/12/30 05:41:01;;;;;;;2.40;1.02;;;;;;;15.31;60.70;96721.72;5095457;28;20422;-28
2021/12/30 05:43:26;;;;;;;3.83;1.30;;;;;;;15.33;60.75;96722.00;5095491;28;20024;-29
2021/12/30 05:45:52;;;;;;;3.63;1.02;;;;;;;15.28;60.78;96724.59;5095264;28;20086;-29
2021/12/30 05:48:18;;;;;;;3.25;1.08;;;;;;;15.32;60.61;96717.03;5095373;28;20020;-28
2021/12/30 05:50:43;;;;;;;3.72;1.00;;;;;;;15.30;60.83;96719.44;5095268;28;20028;-29
2021/12/30 05:53:09;;;;;;;3.90;1.20;;;;;;;15.34;60.53;96709.88;5093930;28;20016;-28
2021/12/30 05:55:34;;;;;;;4.40;0.98;;;;;;;15.27;60.75;96718.38;5095753;28;20031;-29
2021/12/30 05:58:00;;;;;;;4.25;1.20;;;;;;;15.34;60.48;96723.53;5095251;28;20024;-29
2021/12/30 06:00:28;;;;;;;3.42;1.48;;;;;;;15.37;60.36;96730.09;5094652;28;20024;-28
2021/12/30 06:02:53;;;;;;;4.50;1.10;;;;;;;15.32;60.61;96728.72;5095029;28;20027;-29
2021/12/30 06:05:19;;;;;;;3.60;1.10;;;;;;;15.39;60.44;96738.59;5094938;28;20031;-29
2021/12/30 06:07:45;;;;;;;3.67;1.27;;;;;;;15.38;60.44;96737.06;5094919;28;20031;-29
2021/12/30 06:10:11;;;;;;;3.35;1.05;;;;;;;15.31;60.62;96743.59;5094884;28;20028;-29
2021/12/30 06:12:37;;;;;;;4.45;1.55;;;;;;;15.31;60.60;96748.28;5094926;28;20055;-29
2021/12/30 06:15:03;;;;;;;2.97;1.10;;;;;;;15.35;60.35;96737.97;5094923;28;20044;-29
2021/12/30 06:17:29;;;;;;;3.70;1.10;;;;;;;15.38;60.31;96742.53;5094689;28;20446;-30
2021/12/30 06:19:54;;;;;;;3.20;1.17;;;;;;;15.35;60.49;96746.94;5094873;28;20107;-30
2021/12/30 06:22:20;;;;;;;4.18;1.20;;;;;;;15.27;60.63;96748.41;5094496;28;20020;-29
2021/12/30 06:24:45;;;;;;;4.30;1.10;;;;;;;15.36;60.34;96751.19;5094433;28;20358;-28
2021/12/30 06:27:11;;;;;;;3.30;0.93;;;;;;;15.30;60.39;96755.72;5094555;28;20096;-29
2021/12/30 06:29:37;;;;;;;5.85;1.10;;;;;;;15.36;60.09;96766.81;5094419;28;20020;-29
2021/12/30 06:32:06;;;;;;;2.63;1.13;;;;;;;15.26;60.62;96768.00;5094763;28;20024;-29
2021/12/30 06:34:33;;;;;;;4.57;1.08;;;;;;;15.34;60.47;96764.53;5094428;28;20027;-29
2021/12/30 06:36:58;;;;;;;5.13;1.45;;;;;;;15.36;60.28;96775.00;5094396;28;20051;-29
2021/12/30 06:39:24;;;;;;;4.65;1.17;;;;;;;15.39;60.28;96765.94;5094329;28;20100;-29
2021/12/30 06:41:49;;;;;;;4.35;1.13;;;;;;;15.27;60.37;96775.75;5094494;28;20085;-29
2021/12/30 06:44:15;;;;;;;4.22;1.00;;;;;;;15.37;60.07;96773.81;5094283;28;20028;-29
2021/12/30 06:46:48;;;;;;;3.90;1.10;;;;;;;15.32;60.27;96780.63;5093605;28;20442;-28
2021/12/30 06:49:13;;;;;;;2.47;1.00;;;;;;;15.34;59.96;96786.38;5091901;28;20024;-29
2021/12/30 06:51:39;;;;;;;3.10;0.90;;;;;;;15.38;60.07;96786.25;5090769;28;20048;-29
2021/12/30 06:54:04;;;;;;;3.40;1.05;;;;;;;15.38;60.02;96797.97;5091979;28;20032;-29
2021/12/30 06:56:31;;;;;;;6.60;1.33;;;;;;;15.31;60.08;96808.41;5090933;28;20487;-29
2021/12/30 06:58:56;;;;;;;1.48;0.80;;;;;;;15.26;60.29;96817.19;5091942;28;20455;-29
2021/12/30 07:01:22;;;;;;;3.35;1.30;;;;;;;15.31;60.06;96814.63;5091890;28;20107;-29
2021/12/30 07:03:47;;;;;;;2.25;0.80;;;;;;;15.33;60.25;96828.59;5091921;28;20074;-28
2021/12/30 07:06:13;;;;;;;2.85;0.98;;;;;;;15.35;60.10;96831.66;5091704;28;20028;-29
2021/12/30 07:08:38;;;;;;;2.83;0.90;;;;;;;15.32;60.09;96832.56;5092045;28;20026;-30
2021/12/30 07:11:04;;;;;;;4.03;1.10;;;;;;;15.34;60.01;96845.75;5091614;28;20102;-29
2021/12/30 07:13:29;;;;;;;2.45;0.75;;;;;;;15.36;60.06;96838.63;5090997;28;20410;-29
2021/12/30 07:15:55;;;;;;;2.47;1.10;;;;;;;15.33;60.09;96842.25;5091663;28;20466;-29
2021/12/30 07:18:20;;;;;;;3.35;1.00;;;;;;;15.19;60.51;96859.19;5091843;28;20016;-29
2021/12/30 07:20:46;;;;;;;4.72;1.17;;;;;;;15.36;60.00;96859.72;5091760;28;20027;-29
2021/12/30 07:23:11;;;;;;;2.65;0.93;;;;;;;15.38;59.94;96863.56;5091085;28;20469;-28
2021/12/30 07:25:37;;;;;;;4.05;0.90;;;;;;;15.38;59.93;96868.25;5091455;28;20028;-29
2021/12/30 07:28:03;;;;;;;4.10;1.10;;;;;;;15.34;60.11;96868.38;5091242;28;20039;-29
2021/12/30 07:30:30;;;;;;;3.88;1.00;;;;;;;15.39;59.81;96869.78;5091223;28;20024;-29
2021/12/30 07:32:55;;;;;;;3.90;1.33;;;;;;;15.27;60.21;96874.13;5091388;28;20028;-29
2021/12/30 07:35:22;;;;;;;2.88;1.08;;;;;;;15.32;60.10;96870.81;5089244;28;20450;-29
2021/12/30 07:37:49;;;;;;;3.95;1.30;;;;;;;15.36;60.03;96870.66;5091361;28;20046;-29
2021/12/30 07:40:15;;;;;;;2.65;1.27;;;;;;;15.31;60.14;96872.03;5085880;28;20047;-29
2021/12/30 07:42:41;;;;;;;1.88;0.85;;;;;;;15.39;59.83;96870.53;5084844;28;20654;-28
2021/12/30 07:45:09;;;;;;;3.05;1.20;;;;;;;15.37;60.07;96870.22;5077951;28;20089;-29
2021/12/30 07:47:35;;;;;;;2.33;1.13;;;;;;;15.30;60.12;96869.72;5069427;28;20798;-28
2021/12/30 07:50:02;;;;;;;4.20;1.30;;;;;;;15.33;60.19;96874.31;5075282;28;20043;-28
2021/12/30 07:52:27;;;;;;;4.25;1.08;;;;;;;15.36;59.98;96876.91;5087501;28;20055;-29
2021/12/30 07:54:53;;;;;;;2.17;0.90;;;;;;;15.37;60.07;96888.59;5090540;28;20040;-29
2021/12/30 07:57:21;;;;;;;3.55;1.17;;;;;;;15.36;60.09;96882.34;5090838;28;20036;-29
2021/12/30 07:59:47;;;;;;;2.70;1.13;;;;;;;15.35;60.18;96878.09;5090810;28;20035;-29
2021/12/30 08:02:13;;;;;;;3.05;1.20;;;;;;;15.36;60.25;96874.16;5091126;28;20039;-28
2021/12/30 08:04:39;;;;;;;4.75;1.30;;;;;;;15.38;60.05;96879.19;5089594;28;20032;-29
2021/12/30 08:07:04;;;;;;;2.33;1.08;;;;;;;15.35;60.14;96878.09;5091137;28;20108;-29
2021/12/30 08:09:30;;;;;;;3.83;1.17;;;;;;;15.32;60.24;96881.75;5089166;28;20066;-30
2021/12/30 08:11:55;;;;;;;4.50;1.45;;;;;;;15.40;60.08;96882.22;5088463;28;20032;-29
2021/12/30 08:14:21;;;;;;;3.97;1.20;;;;;;;15.39;60.25;96875.25;5070775;28;20025;-28
2021/12/30 08:16:46;;;;;;;3.08;1.15;;;;;;;15.37;60.20;96878.41;5078756;28;20390;-29
2021/12/30 08:19:11;;;;;;;3.40;1.52;;;;;;;15.36;60.29;96873.41;5073169;28;20021;-29
2021/12/30 08:21:41;;;;;;;3.85;1.23;;;;;;;15.40;60.08;96866.59;5082631;28;20040;-29
2021/12/30 08:24:07;;;;;;;3.78;1.42;;;;;;;15.31;60.43;96874.00;5086314;28;20030;-28
2021/12/30 08:26:33;;;;;;;2.55;1.52;;;;;;;15.32;60.49;96870.06;5095035;28;20032;-28
2021/12/30 08:28:58;;;;;;;4.25;1.50;;;;;;;15.31;60.48;96879.47;5093533;28;20028;-29
2021/12/30 08:31:23;;;;;;;2.80;1.48;;;;;;;15.33;60.49;96888.72;5094960;28;20051;-29
2021/12/30 08:33:49;;;;;;;3.67;1.63;;;;;;;15.41;60.10;96884.53;5096650;28;20066;-29
2021/12/30 08:36:14;;;;;;;3.72;1.20;;;;;;;15.24;60.49;96896.84;5096595;28;20056;-28
2021/12/30 08:38:40;;;;;;;1.77;1.10;;;;;;;15.36;60.17;96903.47;5096615;28;20077;-30
2021/12/30 08:41:05;;;;;;;3.05;1.50;;;;;;;15.29;60.80;96903.72;5096516;28;20020;-29
2021/12/30 08:43:32;;;;;;;4.75;1.30;;;;;;;15.39;60.17;96905.31;5096686;28;20026;-28
2021/12/30 08:45:57;;;;;;;3.33;1.20;;;;;;;15.26;60.54;96905.38;5095352;28;20031;-29
2021/12/30 08:48:23;;;;;;;5.28;1.30;;;;;;;15.40;60.11;96899.41;5096677;28;20488;-28
2021/12/30 08:50:48;;;;;;;2.05;1.05;;;;;;;15.40;60.09;96913.06;5096206;28;20052;-28
2021/12/30 08:53:15;;;;;;;3.00;1.50;;;;;;;15.32;60.38;96914.53;5095078;28;20027;-29
2021/12/30 08:55:41;;;;;;;3.47;1.30;;;;;;;15.43;59.89;96911.41;5096300;28;20020;-29
2021/12/30 08:58:07;;;;;;;3.05;1.38;;;;;;;15.40;59.91;96920.50;5096211;28;20418;-29
2021/12/30 09:00:38;;;;;;;4.20;1.33;;;;;;;15.40;59.91;96920.50;5096410;28;20051;-28
2021/12/30 09:03:05;;;;;;;3.10;1.40;;;;;;;15.40;59.95;96926.72;5096278;28;20474;-29
2021/12/30 09:05:32;;;;;;;3.22;1.13;;;;;;;15.36;60.08;96931.56;5096330;28;20482;-28
2021/12/30 09:07:57;;;;;;;2.13;1.30;;;;;;;15.18;60.56;96947.84;5095983;28;20020;-28
2021/12/30 09:10:23;;;;;;;5.00;1.50;;;;;;;15.25;60.37;96935.88;5096170;28;20024;-28
2021/12/30 09:12:50;;;;;;;3.15;0.90;;;;;;;15.38;59.98;96936.56;5096128;28;20016;-29
2021/12/30 09:15:18;;;;;;;2.17;0.95;;;;;;;15.28;59.37;96946.69;5096005;28;20485;-29
2021/12/30 09:17:46;;;;;;;2.85;1.00;;;;;;;15.37;60.01;96944.00;5096037;28;20474;-29
2021/12/30 09:20:13;;;;;;;2.75;1.00;;;;;;;15.39;59.58;96943.56;5096056;28;20024;-29
2021/12/30 09:22:39;;;;;;;3.25;1.10;;;;;;;15.31;59.76;96948.53;5095736;28;20470;-29
2021/12/30 09:25:07;;;;;;;2.95;1.20;;;;;;;15.33;60.13;96943.38;5095807;28;20028;-30
2021/12/30 09:27:37;;;;;;;3.88;1.15;;;;;;;15.37;60.16;96948.72;5095916;28;20024;-28
2021/12/30 09:30:09;;;;;;;2.15;1.00;;;;;;;15.44;59.89;96953.94;5095921;28;20016;-29
2021/12/30 09:32:34;;;;;;;3.60;1.00;;;;;;;15.31;60.14;96955.97;5095436;28;20117;-29
2021/12/30 09:35:01;;;;;;;2.75;1.00;;;;;;;15.37;60.25;96954.94;5095013;28;20463;-28
2021/12/30 09:37:26;;;;;;;2.08;0.80;;;;;;;15.43;59.97;96958.66;5095275;28;20055;-29
2021/12/30 09:39:51;;;;;;;3.60;1.05;;;;;;;15.41;60.10;96969.25;5095842;28;20416;-28
2021/12/30 09:42:18;;;;;;;2.65;1.02;;;;;;;15.44;59.88;96960.16;5095700;28;20077;-29
2021/12/30 09:44:44;;;;;;;2.05;1.15;;;;;;;15.44;59.85;96957.44;5095222;28;20048;-29
2021/12/30 09:47:09;;;;;;;2.33;1.15;;;;;;;15.38;60.16;96951.00;5095704;28;20054;-29
2021/12/30 09:49:35;;;;;;;2.33;1.05;;;;;;;15.44;59.98;96948.47;5095328;28;20469;-28
2021/12/30 09:52:00;;;;;;;2.60;1.20;;;;;;;15.43;59.81;96958.66;5095162;28;20047;-29
2021/12/30 09:54:26;;;;;;;2.67;1.20;;;;;;;15.44;59.76;96960.16;5095311;28;20028;-29
2021/12/30 09:56:52;;;;;;;3.47;1.15;;;;;;;15.45;59.76;96964.41;5095177;28;20039;-29
2021/12/30 09:59:19;;;;;;;1.85;1.00;;;;;;;15.45;59.83;96972.59;5095100;28;20020;-29
2021/12/30 10:01:44;;;;;;;1.80;1.00;;;;;;;15.39;59.85;96968.16;5095392;28;20031;-28
2021/12/30 10:04:13;;;;;;;2.35;1.20;;;;;;;15.46;59.85;96971.41;5095013;28;20019;-28
2021/12/30 10:06:47;;;;;;;1.75;1.20;;;;;;;15.46;59.89;96979.59;5094972;28;20032;-29
2021/12/30 10:09:16;;;;;;;2.45;1.20;;;;;;;15.43;59.96;96982.47;5095026;28;20028;-28
2021/12/30 10:11:54;;;;;;;2.05;1.30;;;;;;;15.43;59.97;96980.50;5094966;28;20107;-29
2021/12/30 10:14:26;;;;;;;2.42;0.93;;;;;;;15.47;59.78;96985.81;5094902;28;20016;-30
2021/12/30 10:17:11;;;;;;;1.83;1.25;;;;;;;15.44;59.89;96982.03;5094660;28;20501;-29
2021/12/30 10:19:37;;;;;;;3.80;1.42;;;;;;;15.45;59.89;96993.72;5094538;28;20032;-29
2021/12/30 10:22:09;;;;;;;1.80;1.00;;;;;;;15.45;59.92;96994.47;5095153;28;20016;-29
2021/12/30 10:24:35;;;;;;;1.90;1.33;;;;;;;15.42;60.10;97000.09;5094834;28;20042;-29
2021/12/30 10:27:01;;;;;;;2.03;1.33;;;;;;;15.51;59.64;97005.59;5094763;28;20020;-29
2021/12/30 10:29:28;;;;;;;1.67;1.10;;;;;;;15.53;59.83;97007.91;5094125;28;20478;-29
2021/12/30 10:31:54;;;;;;;2.45;1.30;;;;;;;15.52;59.78;96998.19;5092140;28;20027;-29
2021/12/30 10:34:20;;;;;;;3.53;1.40;;;;;;;15.52;59.83;96996.19;5090955;28;20028;-29
2021/12/30 10:36:48;;;;;;;3.13;1.38;;;;;;;15.55;59.58;96991.84;5094263;28;20050;-29
2021/12/30 10:39:26;;;;;;;2.25;1.17;;;;;;;15.52;59.92;97003.63;5094231;28;20050;-29
2021/12/30 10:42:16;;;;;;;3.67;1.40;;;;;;;15.56;59.53;97002.34;5094303;28;20077;-29
2021/12/30 10:44:51;;;;;;;2.05;0.90;;;;;;;15.44;60.12;97001.16;5094314;28;20100;-28
2021/12/30 10:47:21;;;;;;;2.10;1.13;;;;;;;15.49;59.96;97004.53;5093786;28;20028;-28
2021/12/30 10:50:11;;;;;;;2.25;1.20;;;;;;;15.51;59.83;97004.84;5094155;28;20103;-28
2021/12/30 10:52:54;;;;;;;3.63;1.30;;;;;;;15.54;59.68;97006.69;5094058;28;20040;-28
2021/12/30 10:55:21;;;;;;;2.38;1.13;;;;;;;15.51;59.77;97004.84;5093815;28;20012;-29
2021/12/30 10:57:47;;;;;;;1.98;1.00;;;;;;;15.54;59.80;97002.00;5093664;28;20024;-28
2021/12/30 11:00:32;;;;;;;1.60;1.25;;;;;;;15.53;59.75;97010.63;5094042;28;20028;-28
2021/12/30 11:03:24;;;;;;;2.17;1.10;;;;;;;15.55;59.76;97003.56;5094260;28;20020;-28
2021/12/30 11:06:13;;;;;;;2.20;1.13;;;;;;;15.54;59.55;97004.72;5092388;28;20028;-28
2021/12/30 11:08:38;;;;;;;2.47;1.45;;;;;;;15.56;59.69;97007.06;5093697;28;20024;-30
2021/12/30 11:11:27;;;;;;;2.40;1.35;;;;;;;15.58;59.48;97021.03;5093847;28;20051;-29
2021/12/30 11:14:17;;;;;;;1.98;1.17;;;;;;;15.44;59.83;97014.06;5093795;28;20020;-29
2021/12/30 11:17:01;;;;;;;4.47;1.88;;;;;;;15.47;59.69;97004.97;5088592;28;20043;-28
2021/12/30 11:19:29;;;;;;;3.45;1.60;;;;;;;15.49;59.85;97016.22;5093595;28;20059;-30
2021/12/30 11:21:58;;;;;;;4.03;1.90;;;;;;;15.49;59.69;97004.53;5093597;28;20024;-29
2021/12/30 11:24:25;;;;;;;3.65;1.85;;;;;;;15.45;60.02;96999.19;5093556;28;20020;-29
2021/12/30 11:26:51;;;;;;;2.58;1.70;;;;;;;15.54;59.57;96995.75;5093414;28;20031;-29
2021/12/30 11:29:17;;;;;;;3.13;1.88;;;;;;;15.56;59.51;96996.13;5093470;28;20047;-28
2021/12/30 11:31:43;;;;;;;2.35;1.58;;;;;;;15.57;59.52;96989.44;5093567;28;20478;-28
2021/12/30 11:34:09;;;;;;;3.03;1.60;;;;;;;15.54;59.68;96985.59;5093479;28;20050;-29